Carbon, Iowa
Current Conditions -  °F | °C
As of 6:55 AM on Friday 19 Dec 2014 (Local Time) from KRDK Reporting Station
Haze Haze  
Wind Chill: 25°   Ceiling: 500
Heat Index: 30°   Visibility: 3mi
Dew Point: 30°   Wind: 5mph
Humidity: 100%   Direction: 170°S
Pressure: 30.23"   Gusts: NA
Location:  41.05°N, 94.82°W
Report Text: KRDK 191255Z AUTO 17004KT 3SM BR OVC005 M01/M01 A3023 RMK AO2
Loading
Personal Weather Stations






























Interactive Weather Map New forecast layout! Learn more

10-Day Weather Forecast

Advertisements
Track Severe Weather on mobile